Time;durP1;ratioP1;P1;durP2;ratioP2;P2;SDS_P1;SDS_P2;PMS_P1;PMS_P2;Temp;Humidity;BMP_temperature;BMP_pressure;BME280_temperature;BME280_humidity;BME280_pressure;Samples;Min_cycle;Max_cycle;Signal;HPM_P1;HPM_P2
2022/08/12 00:43:40;;;;;;;7.20;2.90;;;;;;;24.35;37.29;101773.06;5070364;28;20044;-70
2022/08/12 00:48:52;;;;;;;4.78;2.83;;;;;;;24.32;37.12;101764.31;5090874;28;20040;-69
2022/08/12 00:51:18;;;;;;;6.95;3.40;;;;;;;24.31;37.55;101770.84;5091632;28;20041;-70
2022/08/12 00:53:50;;;;;;;4.15;3.22;;;;;;;24.27;37.40;101762.13;5091776;28;20051;-69
2022/08/12 00:56:19;;;;;;;5.57;3.05;;;;;;;24.27;37.42;101766.75;5092139;28;20063;-70
2022/08/12 00:58:49;;;;;;;4.88;3.00;;;;;;;24.24;37.50;101770.66;5091382;28;20512;-69
2022/08/12 01:01:17;;;;;;;5.85;3.13;;;;;;;24.24;37.74;101769.81;5092312;28;20114;-70
2022/08/12 01:12:09;;;;;;;5.35;3.05;;;;;;;24.14;37.80;101774.63;5069720;28;20048;-70
2022/08/12 01:14:36;;;;;;;5.90;2.95;;;;;;;24.12;37.93;101777.56;5070040;28;20044;-70
2022/08/12 01:17:03;;;;;;;4.57;3.08;;;;;;;24.09;38.05;101766.94;5074506;28;20044;-70
2022/08/12 01:19:31;;;;;;;3.35;3.05;;;;;;;24.03;37.93;101773.97;5091610;28;20371;-69
2022/08/12 01:22:19;;;;;;;4.53;3.03;;;;;;;23.99;38.05;101771.75;5091096;28;20398;-69
2022/08/12 01:25:08;;;;;;;5.07;3.42;;;;;;;23.93;38.08;101778.81;5090160;27;20058;-70
2022/08/12 01:27:39;;;;;;;4.90;3.30;;;;;;;23.89;38.16;101771.94;5091049;28;20040;-70
2022/08/12 01:30:08;;;;;;;6.78;3.75;;;;;;;23.85;38.17;101773.31;5091339;28;20054;-70
2022/08/12 01:32:38;;;;;;;4.40;3.42;;;;;;;23.81;38.32;101771.97;5090917;28;20052;-69
2022/08/12 01:35:16;;;;;;;4.10;3.38;;;;;;;23.78;38.66;101772.28;5091336;28;20440;-70
2022/08/12 01:37:53;;;;;;;4.90;3.90;;;;;;;23.74;38.41;101770.91;5090645;28;20040;-69
2022/08/12 01:40:27;;;;;;;6.88;4.10;;;;;;;23.69;38.61;101762.34;5091301;28;20040;-70
2022/08/12 01:43:09;;;;;;;9.65;4.15;;;;;;;23.67;38.83;101764.38;5091154;28;20050;-71
2022/08/12 01:46:08;;;;;;;4.38;3.72;;;;;;;23.61;39.05;101765.94;5091187;28;20047;-70
2022/08/12 01:48:46;;;;;;;4.07;3.60;;;;;;;23.58;38.94;101768.16;5090840;28;20051;-70
2022/08/12 01:51:33;;;;;;;5.93;3.78;;;;;;;23.55;39.16;101763.03;5091610;28;20513;-70
2022/08/12 01:54:21;;;;;;;5.65;4.00;;;;;;;23.53;39.13;101765.91;5095246;28;20059;-70
2022/08/12 01:57:12;;;;;;;7.35;3.90;;;;;;;23.50;39.10;101765.41;5095540;28;20046;-70
2022/08/12 01:59:58;;;;;;;6.70;4.00;;;;;;;23.44;39.46;101765.06;5094937;28;20036;-69
2022/08/12 02:02:31;;;;;;;4.88;4.00;;;;;;;23.42;39.46;101761.63;5094803;28;20524;-69
2022/08/12 02:11:28;;;;;;;5.25;3.95;;;;;;;23.30;39.54;101771.22;5094910;28;20130;-71
2022/08/12 02:14:30;;;;;;;5.43;3.85;;;;;;;23.27;39.96;101768.81;5095365;28;20047;-70
2022/08/12 02:16:59;;;;;;;4.97;3.60;;;;;;;23.27;39.86;101765.22;5094643;28;20036;-70
2022/08/12 02:19:41;;;;;;;6.70;4.00;;;;;;;23.23;40.19;101772.91;5094535;28;20055;-70
2022/08/12 02:22:27;;;;;;;4.20;3.80;;;;;;;23.21;40.35;101771.38;5093150;28;20044;-70
2022/08/12 02:25:14;;;;;;;7.28;4.15;;;;;;;23.18;40.40;101777.19;5093524;27;20044;-69
2022/08/12 02:27:50;;;;;;;7.78;4.40;;;;;;;23.14;39.95;101768.44;5093939;28;20040;-70
2022/08/12 02:30:20;;;;;;;5.53;4.20;;;;;;;23.10;40.32;101770.66;5094807;28;20040;-70
2022/08/12 02:32:49;;;;;;;5.75;4.35;;;;;;;23.05;40.02;101764.84;5094146;28;20040;-70
2022/08/12 02:35:22;;;;;;;6.32;4.10;;;;;;;23.03;40.34;101755.03;5094551;28;20036;-70
2022/08/12 02:37:56;;;;;;;4.93;4.07;;;;;;;23.00;40.49;101764.44;5093996;28;20043;-70
2022/08/12 02:40:24;;;;;;;7.68;4.22;;;;;;;22.98;40.37;101761.03;5094276;28;20028;-70
2022/08/12 02:43:15;;;;;;;5.65;3.90;;;;;;;22.95;40.45;101768.72;5092900;28;20054;-70
2022/08/12 02:45:56;;;;;;;8.95;4.15;;;;;;;22.91;40.56;101767.34;5093037;28;20504;-70
2022/08/12 02:48:29;;;;;;;5.25;3.72;;;;;;;22.89;40.50;101767.50;5094117;28;20032;-70
2022/08/12 02:51:00;;;;;;;7.28;4.13;;;;;;;22.87;40.94;101758.59;5094080;28;20044;-70
2022/08/12 02:53:32;;;;;;;5.68;3.95;;;;;;;22.86;40.66;101761.50;5093967;28;20047;-71
2022/08/12 02:56:04;;;;;;;5.60;4.25;;;;;;;22.83;41.00;101765.44;5093806;28;20036;-70
2022/08/12 02:58:32;;;;;;;5.75;4.20;;;;;;;22.80;40.88;101758.41;5093970;28;20044;-69
2022/08/12 03:01:08;;;;;;;6.47;4.22;;;;;;;22.79;41.19;101755.81;5093920;27;20125;-69
2022/08/12 03:03:39;;;;;;;5.60;4.20;;;;;;;22.77;41.27;101753.22;5074913;28;20051;-70
2022/08/12 03:06:15;;;;;;;7.32;4.28;;;;;;;22.75;41.35;101749.81;5093308;27;20461;-70
2022/08/12 03:08:42;;;;;;;4.78;4.20;;;;;;;22.73;41.25;101751.00;5093832;28;20054;-70
2022/08/12 03:11:28;;;;;;;7.03;4.13;;;;;;;22.71;41.43;101747.56;5093760;28;20119;-70
2022/08/12 03:14:01;;;;;;;5.47;4.13;;;;;;;22.67;41.90;101747.03;5093807;28;20123;-70
2022/08/12 03:16:31;;;;;;;6.75;4.40;;;;;;;22.65;41.97;101748.22;5093081;28;20044;-70
2022/08/12 03:18:59;;;;;;;9.88;4.55;;;;;;;22.62;41.72;101746.69;5093909;28;20047;-69
2022/08/12 03:21:25;;;;;;;5.45;4.03;;;;;;;22.59;41.93;101749.75;5093647;28;20047;-69
2022/08/12 03:24:17;;;;;;;9.02;5.55;;;;;;;22.57;41.99;101745.47;5093770;28;20040;-69
2022/08/12 03:26:46;;;;;;;5.55;4.20;;;;;;;22.57;42.13;101745.47;5092658;27;20438;-70
2022/08/12 03:29:15;;;;;;;6.82;4.45;;;;;;;22.55;42.44;101744.78;5093272;28;20040;-70
2022/08/12 03:31:42;;;;;;;5.68;4.30;;;;;;;22.53;42.25;101742.19;5093295;28;20040;-70
2022/08/12 03:34:13;;;;;;;5.57;4.45;;;;;;;22.49;42.59;101738.06;5093537;28;20123;-71
2022/08/12 03:36:41;;;;;;;6.03;4.50;;;;;;;22.46;42.50;101746.63;5092840;28;20039;-71
2022/08/12 03:42:08;;;;;;;7.90;4.90;;;;;;;22.38;42.68;101741.97;5092930;28;20460;-70
2022/08/12 04:01:25;;;;;;;9.60;4.95;;;;;;;22.35;42.90;101764.19;5072787;28;20037;-70
2022/08/12 04:03:54;;;;;;;6.25;5.18;;;;;;;22.35;43.16;101755.13;5072606;28;20051;-70
2022/08/12 04:06:25;;;;;;;6.65;4.82;;;;;;;22.34;43.30;101762.47;5088723;28;20074;-70
2022/08/12 04:09:06;;;;;;;5.97;5.32;;;;;;;22.33;43.61;101766.22;5092616;27;20101;-69
2022/08/12 04:14:35;;;;;;;5.82;5.20;;;;;;;22.27;43.61;101755.91;5092245;28;20040;-70
2022/08/12 04:17:03;;;;;;;6.80;4.60;;;;;;;22.25;43.70;101760.69;5072076;28;20036;-70
2022/08/12 04:19:30;;;;;;;10.55;5.55;;;;;;;22.24;43.63;101756.22;5072575;28;20029;-70
2022/08/12 04:21:57;;;;;;;7.03;4.63;;;;;;;22.24;43.78;101755.38;5071912;28;20041;-70
2022/08/12 04:24:33;;;;;;;6.60;4.97;;;;;;;22.23;43.77;101754.50;5072632;28;20522;-70
2022/08/12 04:27:04;;;;;;;6.25;5.00;;;;;;;22.22;44.25;101755.53;5070734;28;20139;-70
2022/08/12 04:29:31;;;;;;;9.05;5.35;;;;;;;22.21;43.87;101751.09;5072083;28;20554;-70
2022/08/12 04:32:17;;;;;;;5.78;5.18;;;;;;;22.23;44.26;101756.41;5071939;28;20486;-70
2022/08/12 04:34:45;;;;;;;7.85;5.25;;;;;;;22.21;44.22;101753.81;5074153;28;20041;-69
2022/08/12 04:37:12;;;;;;;8.45;5.80;;;;;;;22.19;44.37;101745.78;5092110;28;20047;-70
2022/08/12 04:39:39;;;;;;;7.47;5.75;;;;;;;22.18;44.40;101749.53;5091997;28;20058;-71
2022/08/12 04:42:06;;;;;;;9.15;5.35;;;;;;;22.19;44.46;101753.97;5092298;28;20524;-71
2022/08/12 04:44:32;;;;;;;6.60;5.47;;;;;;;22.19;44.52;101747.66;5090412;28;20040;-70
2022/08/12 04:46:59;;;;;;;14.15;5.80;;;;;;;22.19;44.66;101753.97;5090601;28;20042;-71
2022/08/12 04:49:27;;;;;;;7.70;5.20;;;;;;;22.20;44.78;101746.63;5090626;28;20052;-70
2022/08/12 04:51:55;;;;;;;8.23;5.63;;;;;;;22.20;44.68;101754.84;5090486;28;20043;-69
2022/08/12 04:54:29;;;;;;;8.95;5.45;;;;;;;22.19;44.62;101753.97;5091581;28;20077;-71
2022/08/12 04:56:56;;;;;;;11.75;5.60;;;;;;;22.19;44.67;101750.38;5091655;28;20048;-71
2022/08/12 04:59:31;;;;;;;6.70;5.25;;;;;;;22.19;44.80;101753.97;5091887;28;20036;-70
2022/08/12 05:02:24;;;;;;;8.25;5.20;;;;;;;22.19;44.99;101756.72;5091667;28;20044;-70
2022/08/12 05:04:57;;;;;;;9.73;5.47;;;;;;;22.19;44.73;101759.47;5091411;28;20494;-71
2022/08/12 05:07:26;;;;;;;9.20;6.03;;;;;;;22.22;44.71;101762.88;5071512;28;20048;-71
2022/08/12 05:09:53;;;;;;;8.45;6.05;;;;;;;22.22;44.89;101763.75;5070366;28;20489;-71
2022/08/12 05:12:33;;;;;;;9.15;5.72;;;;;;;22.25;45.13;101763.41;5072583;28;20082;-70
2022/08/12 05:14:59;;;;;;;6.22;5.28;;;;;;;22.26;45.08;101761.53;5091665;28;20089;-71
2022/08/12 05:17:26;;;;;;;8.02;5.60;;;;;;;22.24;45.20;101769.91;5091287;28;20047;-70
2022/08/12 05:19:54;;;;;;;7.28;5.20;;;;;;;22.24;45.26;101766.31;5091453;28;20401;-70
2022/08/12 05:22:25;;;;;;;7.68;5.32;;;;;;;22.26;45.19;101769.75;5091088;28;20381;-70
2022/08/12 05:24:52;;;;;;;6.38;4.72;;;;;;;22.26;45.07;101764.28;5091366;28;20134;-70
2022/08/12 05:27:21;;;;;;;6.85;5.00;;;;;;;22.29;45.06;101769.41;5090902;28;20039;-71
2022/08/12 05:29:48;;;;;;;6.68;5.47;;;;;;;22.31;45.62;101765.53;5091261;27;20064;-70
2022/08/12 05:32:35;;;;;;;7.90;4.80;;;;;;;22.34;45.47;101764.34;5090689;28;20416;-69
2022/08/12 05:35:05;;;;;;;8.23;4.90;;;;;;;22.36;45.35;101770.53;5091303;27;20119;-70
2022/08/12 05:37:33;;;;;;;5.93;5.30;;;;;;;22.39;45.60;101761.97;5091238;28;20040;-70
2022/08/12 05:40:03;;;;;;;6.85;5.40;;;;;;;22.42;45.85;101764.38;5089972;28;20448;-70
2022/08/12 05:42:36;;;;;;;9.82;5.07;;;;;;;22.46;45.54;101780.31;5090796;28;20060;-70
2022/08/12 05:45:04;;;;;;;8.50;5.18;;;;;;;22.51;45.45;101771.63;5091123;27;20532;-69
2022/08/12 05:47:30;;;;;;;9.57;5.97;;;;;;;22.55;45.79;101773.00;5091258;28;20039;-70
2022/08/12 05:50:17;;;;;;;6.78;5.45;;;;;;;22.62;45.86;101776.78;5089785;28;20043;-70
2022/08/12 05:52:43;;;;;;;9.35;5.60;;;;;;;22.66;45.54;101778.19;5090570;28;20278;-70
2022/08/12 05:55:10;;;;;;;6.05;5.20;;;;;;;22.72;45.87;101772.03;5089967;28;20414;-69
2022/08/12 05:57:37;;;;;;;8.40;5.63;;;;;;;22.78;45.52;101776.84;5090876;27;20056;-69
2022/08/12 06:00:05;;;;;;;8.48;5.13;;;;;;;22.83;45.64;101779.97;5091041;28;20044;-69
2022/08/12 06:02:37;;;;;;;7.13;5.68;;;;;;;22.90;45.70;101779.31;5090534;28;20040;-69
2022/08/12 06:05:06;;;;;;;8.23;6.03;;;;;;;22.98;45.92;101782.06;5089286;28;20413;-69
2022/08/12 06:07:40;;;;;;;6.78;5.38;;;;;;;23.05;45.76;101786.75;5090939;28;20050;-70
2022/08/12 06:10:27;;;;;;;9.35;5.70;;;;;;;23.14;45.86;101776.66;5090945;28;20036;-70
2022/08/12 06:13:04;;;;;;;11.05;6.00;;;;;;;23.24;45.80;101782.00;5090440;28;20078;-69
2022/08/12 06:15:36;;;;;;;8.77;5.85;;;;;;;23.34;45.74;101785.44;5072978;28;20403;-72
2022/08/12 06:18:06;;;;;;;9.07;5.80;;;;;;;23.45;45.61;101788.69;5089584;28;20058;-69
2022/08/12 06:20:42;;;;;;;8.45;5.68;;;;;;;23.60;45.34;101790.78;5090604;28;20462;-70
2022/08/12 06:23:10;;;;;;;10.05;6.65;;;;;;;23.70;45.26;101786.84;5090892;28;20050;-68
2022/08/12 06:25:37;;;;;;;7.68;6.20;;;;;;;23.85;45.34;101794.41;5090573;28;20273;-69
2022/08/12 06:28:16;;;;;;;6.93;4.88;;;;;;;23.97;45.23;101787.53;5090738;28;20044;-69
2022/08/12 06:30:44;;;;;;;10.02;5.75;;;;;;;24.11;45.10;101788.72;5090769;28;20071;-67
2022/08/12 06:33:33;;;;;;;10.00;5.88;;;;;;;24.29;44.77;101786.63;5090554;28;20044;-70
2022/08/12 06:36:22;;;;;;;9.52;6.20;;;;;;;24.46;44.57;101780.06;5090799;28;20067;-69
2022/08/12 06:38:49;;;;;;;9.65;6.85;;;;;;;24.60;44.37;101779.34;5091890;28;20055;-70
2022/08/12 06:44:07;;;;;;;11.02;6.10;;;;;;;24.95;44.18;101777.97;5093135;28;20353;-71
2022/08/12 06:46:38;;;;;;;8.85;5.60;;;;;;;25.13;43.98;101776.88;5093861;28;20052;-72
2022/08/12 06:49:05;;;;;;;9.82;5.93;;;;;;;25.29;43.84;101772.16;5094016;28;20044;-70
2022/08/12 06:51:32;;;;;;;13.02;5.70;;;;;;;25.46;43.27;101772.88;5094019;28;20130;-71
2022/08/12 06:54:00;;;;;;;11.18;6.35;;;;;;;25.64;43.50;101769.78;5093994;28;20055;-71
2022/08/12 06:56:27;;;;;;;11.55;6.15;;;;;;;25.84;42.87;101768.25;5092495;28;20036;-71
2022/08/12 06:59:14;;;;;;;9.50;5.90;;;;;;;26.08;42.81;101767.19;5093664;28;20044;-66
2022/08/12 07:01:41;;;;;;;13.07;6.15;;;;;;;26.28;42.35;101768.34;5093462;28;20036;-66
2022/08/12 07:04:19;;;;;;;10.93;5.20;;;;;;;26.47;42.28;101766.09;5094073;28;20032;-66
2022/08/12 07:07:08;;;;;;;12.35;5.85;;;;;;;26.64;41.84;101764.84;5094007;28;20426;-66
2022/08/12 07:09:38;;;;;;;10.52;5.57;;;;;;;26.83;41.76;101761.50;5093765;28;20060;-66
2022/08/12 07:12:26;;;;;;;11.68;5.35;;;;;;;27.00;41.54;101769.56;5093724;28;20044;-65
2022/08/12 07:14:58;;;;;;;10.80;5.68;;;;;;;27.12;41.01;101774.38;5094013;28;20048;-65
2022/08/12 07:17:26;;;;;;;10.40;6.07;;;;;;;27.29;40.88;101766.72;5094149;28;20407;-66
2022/08/12 07:19:53;;;;;;;9.77;5.68;;;;;;;27.49;40.53;101772.41;5092524;28;20143;-65
2022/08/12 07:22:26;;;;;;;13.32;5.70;;;;;;;27.70;40.18;101774.38;5092711;28;20398;-65
2022/08/12 07:25:38;;;;;;;12.02;5.60;;;;;;;27.87;40.00;101773.03;5093574;28;20048;-66
2022/08/12 07:27:41;;;;;;;8.88;5.28;;;;;;;28.08;39.59;101772.13;5088458;28;20482;-66
2022/08/12 07:30:08;;;;;;;10.98;5.20;;;;;;;28.25;39.29;101769.97;5092938;28;20058;-65
2022/08/12 07:32:35;;;;;;;10.82;5.57;;;;;;;28.43;39.08;101782.19;5091916;28;20039;-65
2022/08/12 07:35:04;;;;;;;11.02;5.40;;;;;;;28.59;38.99;101780.13;5093453;28;20090;-64
2022/08/12 07:37:31;;;;;;;8.20;4.75;;;;;;;28.72;38.56;101780.19;5093047;28;20040;-65
2022/08/12 07:39:57;;;;;;;7.47;4.50;;;;;;;28.85;38.12;101777.53;5092670;28;20033;-71
2022/08/12 07:42:26;;;;;;;8.43;4.72;;;;;;;29.06;37.94;101782.09;5073330;28;20090;-70
2022/08/12 07:44:55;;;;;;;5.55;4.10;;;;;;;29.26;37.54;101790.44;5085350;28;20060;-69
2022/08/12 07:47:22;;;;;;;7.05;4.70;;;;;;;29.46;37.38;101791.34;5092905;28;20351;-69
2022/08/12 07:49:49;;;;;;;10.35;4.50;;;;;;;29.63;37.15;101789.88;5092394;28;20040;-70
2022/08/12 07:52:37;;;;;;;9.35;4.50;;;;;;;29.85;36.42;101795.25;5092965;28;20097;-70
2022/08/12 07:55:05;;;;;;;9.02;4.10;;;;;;;29.98;36.18;101786.94;5093158;28;20078;-70
2022/08/12 07:57:32;;;;;;;10.52;4.05;;;;;;;30.11;36.04;101786.94;5091533;28;20402;-71
2022/08/12 08:00:04;;;;;;;6.50;3.72;;;;;;;30.27;35.76;101792.03;5091347;28;20054;-70
2022/08/12 08:02:34;;;;;;;10.25;3.70;;;;;;;30.41;35.23;101786.47;5090978;28;20044;-70
2022/08/12 08:05:02;;;;;;;5.70;4.07;;;;;;;30.54;35.27;101786.47;5092750;28;20068;-69
2022/08/12 08:07:28;;;;;;;9.15;3.83;;;;;;;30.64;34.70;101786.88;5092678;28;20066;-69
2022/08/12 08:09:58;;;;;;;6.68;3.50;;;;;;;30.72;34.41;101783.84;5092585;28;20048;-69
2022/08/12 08:15:13;;;;;;;6.80;3.20;;;;;;;31.05;33.94;101785.63;5090060;28;20525;-69
2022/08/12 08:17:56;;;;;;;8.32;3.15;;;;;;;31.19;33.37;101778.97;5091660;28;20043;-70
2022/08/12 08:20:27;;;;;;;6.55;3.78;;;;;;;31.34;33.17;101785.09;5092241;28;20047;-69
2022/08/12 08:25:32;;;;;;;5.30;3.70;;;;;;;31.64;32.65;101784.44;5110155;28;20040;-71
2022/08/12 08:28:09;;;;;;;6.95;3.17;;;;;;;31.77;32.37;101787.13;5090996;28;20050;-71
2022/08/12 08:30:42;;;;;;;8.23;3.40;;;;;;;31.90;31.83;101781.47;5091815;28;20040;-71
2022/08/12 08:33:14;;;;;;;7.90;3.00;;;;;;;32.03;31.63;101780.53;5091850;28;20036;-70
2022/08/12 08:36:01;;;;;;;6.00;3.13;;;;;;;32.14;31.28;101791.75;5091508;28;20036;-71
2022/08/12 08:38:28;;;;;;;4.95;3.50;;;;;;;32.22;31.10;101783.09;5092125;28;20036;-71
2022/08/12 08:44:09;;;;;;;4.95;2.78;;;;;;;32.45;30.53;101784.38;5091472;28;20384;-70
2022/08/12 08:46:42;;;;;;;9.00;3.15;;;;;;;32.58;30.50;101787.00;5102014;28;20396;-71
2022/08/12 08:49:10;;;;;;;5.97;2.92;;;;;;;32.73;30.24;101783.88;5092610;28;20036;-71
2022/08/12 08:51:37;;;;;;;3.05;2.58;;;;;;;32.82;29.93;101786.13;5091389;28;20486;-71
2022/08/12 08:54:10;;;;;;;3.63;2.58;;;;;;;32.93;29.56;101787.28;5091588;28;20044;-72
2022/08/12 08:56:48;;;;;;;4.88;2.60;;;;;;;33.07;29.54;101788.78;5091120;28;20055;-70
2022/08/12 08:59:18;;;;;;;11.32;3.35;;;;;;;33.21;29.25;101792.25;5090508;28;20097;-70
2022/08/12 09:01:46;;;;;;;7.47;2.85;;;;;;;33.32;29.17;101791.47;5090731;28;20068;-71
2022/08/12 09:04:14;;;;;;;5.53;2.75;;;;;;;33.41;28.90;101784.47;5090974;28;20048;-71
2022/08/12 09:07:01;;;;;;;9.65;2.97;;;;;;;33.56;28.26;101786.84;5089446;28;20047;-68
2022/08/12 09:09:49;;;;;;;6.35;3.03;;;;;;;33.68;28.49;101784.91;5091618;28;20050;-68
2022/08/12 09:15:27;;;;;;;8.60;3.03;;;;;;;33.89;27.91;101779.88;5091127;28;20059;-68
2022/08/12 09:18:06;;;;;;;9.65;2.40;;;;;;;33.97;27.75;101783.16;5091035;28;20059;-68
2022/08/12 09:20:37;;;;;;;8.13;3.45;;;;;;;34.05;28.16;101776.38;5091450;28;20490;-68
2022/08/12 09:23:09;;;;;;;4.95;3.00;;;;;;;34.18;27.44;101778.06;5091318;28;20093;-69
2022/08/12 09:25:56;;;;;;;5.38;2.60;;;;;;;34.28;27.51;101772.75;5090995;28;20048;-68
2022/08/12 09:28:27;;;;;;;3.92;2.33;;;;;;;34.36;27.06;101775.22;5090830;28;20040;-68
2022/08/12 09:30:58;;;;;;;4.75;2.40;;;;;;;34.49;26.98;101782.47;5091189;28;20509;-69
2022/08/12 09:33:32;;;;;;;6.95;2.63;;;;;;;34.60;26.58;101779.66;5091211;28;20101;-69
2022/08/12 09:36:21;;;;;;;5.53;2.30;;;;;;;34.76;26.37;101771.59;5090808;28;20084;-71
2022/08/12 09:38:57;;;;;;;3.30;2.20;;;;;;;34.82;26.64;101767.81;5091084;28;20040;-68
2022/08/12 09:41:26;;;;;;;5.90;2.58;;;;;;;34.89;26.20;101771.34;5090727;28;20389;-71
2022/08/12 09:47:06;;;;;;;6.30;2.33;;;;;;;35.05;25.87;101756.63;5090639;28;20040;-75
2022/08/12 09:49:36;;;;;;;5.38;2.55;;;;;;;35.15;25.71;101762.41;5069103;28;20045;-73
2022/08/12 09:52:10;;;;;;;3.72;2.20;;;;;;;35.23;24.74;101759.19;5070498;28;20047;-73
2022/08/12 09:54:38;;;;;;;8.27;2.40;;;;;;;35.26;24.74;101755.91;5070830;28;20473;-74
2022/08/12 09:57:08;;;;;;;3.95;2.25;;;;;;;35.32;24.88;101760.50;5070076;28;20521;-73
2022/08/12 09:59:55;;;;;;;6.43;2.70;;;;;;;35.45;24.94;101767.72;5081133;28;20043;-73
2022/08/12 10:03:03;;;;;;;4.82;2.10;;;;;;;35.54;24.63;101748.59;5090697;28;20040;-73
2022/08/12 10:05:35;;;;;;;5.22;2.40;;;;;;;35.62;24.95;101751.81;5090790;28;20040;-74
2022/08/12 10:08:23;;;;;;;5.22;2.58;;;;;;;35.70;24.50;101747.78;5090711;28;20067;-71
2022/08/12 10:13:48;;;;;;;4.30;2.30;;;;;;;35.72;24.15;101734.41;5072530;28;20114;-72
2022/08/12 10:16:31;;;;;;;5.55;2.40;;;;;;;35.79;23.88;101737.88;5092637;28;20445;-73
2022/08/12 10:19:04;;;;;;;3.38;2.05;;;;;;;35.93;23.63;101738.41;5094666;28;20062;-74
2022/08/12 10:21:43;;;;;;;5.75;2.83;;;;;;;36.00;23.47;101741.00;5094354;28;20044;-73
2022/08/12 10:24:14;;;;;;;5.22;2.50;;;;;;;36.06;22.92;101740.81;5094500;28;20421;-72
2022/08/12 10:29:46;;;;;;;4.32;2.22;;;;;;;36.21;22.80;101723.41;5094382;28;20513;-73
2022/08/12 10:32:32;;;;;;;4.15;2.20;;;;;;;36.26;22.74;101717.91;5094454;28;20437;-72
2022/08/12 10:35:24;;;;;;;4.10;2.17;;;;;;;36.35;22.14;101715.53;5093968;28;20393;-73
2022/08/12 10:37:56;;;;;;;4.75;2.03;;;;;;;36.41;21.96;101709.72;5093923;28;20032;-73
2022/08/12 10:43:41;;;;;;;6.68;2.20;;;;;;;36.57;21.71;101694.84;5093881;28;20482;-73
2022/08/12 10:46:22;;;;;;;6.07;2.22;;;;;;;36.64;21.65;101705.00;5093590;28;20043;-73
2022/08/12 10:48:56;;;;;;;4.15;2.53;;;;;;;36.73;21.79;101697.81;5073556;28;20410;-74
2022/08/12 10:51:31;;;;;;;;;;;;;;;36.78;21.80;101686.72;5074388;28;20461;-74
2022/08/12 10:54:18;;;;;;;5.28;2.05;;;;;;;36.90;21.55;101698.59;5073869;28;19920;-74
2022/08/12 10:56:53;;;;;;;4.95;2.30;;;;;;;36.90;21.41;101693.84;5091779;28;20147;-73
2022/08/12 10:59:20;;;;;;;5.22;2.50;;;;;;;36.89;21.24;101680.97;5093710;28;20032;-73
2022/08/12 11:02:12;;;;;;;6.53;2.55;;;;;;;36.94;21.33;101676.53;5093579;28;20036;-74
2022/08/12 11:05:00;;;;;;;5.50;2.20;;;;;;;37.01;21.23;101674.34;5078778;28;20047;-74
2022/08/12 11:07:49;;;;;;;3.38;2.00;;;;;;;37.08;20.89;101674.97;5093428;28;20047;-72
2022/08/12 11:10:36;;;;;;;4.80;2.20;;;;;;;37.15;20.43;101675.59;5092783;28;20043;-73
2022/08/12 11:13:07;;;;;;;3.83;2.10;;;;;;;37.23;20.55;101661.16;5093617;28;20063;-73
2022/08/12 11:15:35;;;;;;;2.95;2.08;;;;;;;37.36;20.38;101666.31;5093009;28;20084;-72
2022/08/12 11:18:24;;;;;;;3.58;2.20;;;;;;;37.45;20.53;101667.50;5092793;28;20326;-73
2022/08/12 11:20:53;;;;;;;4.22;2.20;;;;;;;37.52;20.54;101656.91;5093365;28;20126;-73
2022/08/12 11:23:27;;;;;;;9.27;2.42;;;;;;;37.60;19.88;101649.97;5093395;28;20077;-73
2022/08/12 11:26:04;;;;;;;5.20;2.25;;;;;;;37.63;20.23;101643.81;5092736;27;20052;-73
2022/08/12 11:28:33;;;;;;;6.15;2.42;;;;;;;37.65;19.87;101651.94;5093264;28;20036;-74
2022/08/12 11:31:05;;;;;;;5.63;2.10;;;;;;;37.59;20.12;101644.63;5093079;28;20040;-74
2022/08/12 11:33:36;;;;;;;4.90;2.10;;;;;;;37.58;20.00;101652.19;5082002;28;20054;-73
2022/08/12 11:36:23;;;;;;;5.05;2.20;;;;;;;37.63;19.73;101649.41;5092853;28;20402;-75
2022/08/12 11:38:51;;;;;;;5.35;2.25;;;;;;;37.65;19.45;101643.53;5092525;28;20036;-75
2022/08/12 11:41:18;;;;;;;5.80;2.40;;;;;;;37.73;19.51;101640.25;5093050;28;20502;-74
2022/08/12 11:44:02;;;;;;;10.55;2.25;;;;;;;37.79;19.36;101645.63;5093064;28;20231;-75
2022/08/12 11:46:56;;;;;;;7.40;3.05;;;;;;;37.86;19.16;101634.16;5072556;28;20032;-75
2022/08/12 11:49:25;;;;;;;4.85;2.25;;;;;;;37.89;19.45;101630.81;5071358;28;20051;-74
2022/08/12 11:51:57;;;;;;;2.80;2.22;;;;;;;37.93;19.75;101622.75;5072522;28;20032;-74
2022/08/12 11:54:24;;;;;;;5.82;2.00;;;;;;;37.98;19.67;101625.56;5072612;28;20055;-74
2022/08/12 11:56:55;;;;;;;3.17;2.25;;;;;;;38.01;19.05;101625.03;5077971;28;20028;-75
2022/08/12 11:59:25;;;;;;;4.68;2.28;;;;;;;38.07;19.11;101621.13;5092488;28;20434;-75
2022/08/12 12:02:11;;;;;;;4.43;2.47;;;;;;;38.11;19.12;101613.84;5092452;28;20032;-75
2022/08/12 12:04:44;;;;;;;5.50;2.42;;;;;;;38.11;19.20;101619.47;5092756;28;20032;-75
2022/08/12 12:07:17;;;;;;;7.30;2.70;;;;;;;38.13;19.32;101615.25;5091264;28;20040;-75
2022/08/12 12:09:44;;;;;;;4.13;2.67;;;;;;;38.20;18.78;101614.19;5090899;28;20498;-76
2022/08/12 12:12:23;;;;;;;6.13;2.10;;;;;;;38.23;18.90;101611.69;5092216;28;20078;-76
2022/08/12 12:14:50;;;;;;;8.10;2.53;;;;;;;38.34;19.07;101607.78;5091088;27;20044;-80
2022/08/12 12:17:25;;;;;;;5.13;2.60;;;;;;;38.47;18.59;101601.63;5092144;28;20490;-79
2022/08/12 12:19:52;;;;;;;8.10;2.38;;;;;;;38.60;19.12;101607.84;5090695;28;20487;-74
2022/08/12 12:22:21;;;;;;;9.55;2.40;;;;;;;38.68;18.61;101602.59;5092060;28;20397;-76
2022/08/12 12:24:53;;;;;;;7.25;2.20;;;;;;;38.75;18.76;101599.50;5091021;28;20051;-76
2022/08/12 12:27:20;;;;;;;4.53;2.40;;;;;;;38.79;18.15;101600.63;5090520;28;20044;-76
2022/08/12 12:30:07;;;;;;;6.00;2.05;;;;;;;38.81;18.37;101595.56;5092005;28;20370;-75
2022/08/12 12:33:12;;;;;;;7.47;2.40;;;;;;;38.81;17.90;101587.16;5091761;28;20387;-76
2022/08/12 12:35:43;;;;;;;19.50;3.97;;;;;;;38.87;17.78;101590.81;5090830;28;20052;-76
2022/08/12 12:38:30;;;;;;;12.32;3.63;;;;;;;38.93;18.15;101581.25;5091603;28;20040;-75
2022/08/12 12:40:59;;;;;;;3.08;2.10;;;;;;;38.99;18.02;101577.31;5091639;28;20031;-75
2022/08/12 12:43:46;;;;;;;5.93;2.35;;;;;;;39.03;17.63;101579.28;5091467;28;20093;-76
2022/08/12 12:46:29;;;;;;;4.10;2.10;;;;;;;39.06;17.74;101573.13;5091910;28;20040;-76
2022/08/12 12:48:56;;;;;;;3.72;1.75;;;;;;;39.05;17.59;101570.59;5089880;28;20047;-79
2022/08/12 12:51:23;;;;;;;5.30;1.98;;;;;;;39.05;17.14;101579.88;5090332;28;20048;-76
2022/08/12 12:54:10;;;;;;;4.60;2.10;;;;;;;39.07;17.27;101568.34;5090846;28;20052;-76
2022/08/12 12:56:39;;;;;;;4.32;1.92;;;;;;;38.98;17.21;101562.44;5091717;28;20032;-73
2022/08/12 12:59:07;;;;;;;14.57;3.10;;;;;;;38.93;17.25;101555.97;5090905;28;20456;-74
2022/08/12 13:01:53;;;;;;;2.28;1.70;;;;;;;38.94;17.32;101561.31;5090568;28;20494;-75
2022/08/12 13:04:21;;;;;;;3.83;1.90;;;;;;;39.00;16.94;101554.56;5091045;28;20050;-74
2022/08/12 13:06:51;;;;;;;3.08;2.00;;;;;;;39.00;16.99;101563.00;5091297;28;20055;-72
2022/08/12 13:09:18;;;;;;;4.07;1.55;;;;;;;38.98;16.69;101551.19;5091441;28;20122;-73
2022/08/12 13:11:49;;;;;;;1.85;1.60;;;;;;;38.96;16.71;101544.19;5091457;28;20058;-73
2022/08/12 13:14:20;;;;;;;9.82;3.03;;;;;;;38.99;16.78;101555.69;5091267;28;20319;-73
2022/08/12 13:16:59;;;;;;;5.88;2.38;;;;;;;39.05;16.57;101548.97;5090966;28;20516;-74
2022/08/12 13:19:29;;;;;;;18.95;3.47;;;;;;;39.15;16.40;101542.50;5090757;28;20108;-74
2022/08/12 13:22:17;;;;;;;2.72;1.75;;;;;;;39.18;16.46;101541.94;5089958;28;20046;-75
2022/08/12 13:25:10;;;;;;;5.07;1.92;;;;;;;39.21;16.22;101537.72;5091216;28;20124;-75
2022/08/12 13:27:44;;;;;;;3.08;1.70;;;;;;;39.25;16.01;101536.03;5091020;28;20414;-75
2022/08/12 13:30:22;;;;;;;5.03;2.45;;;;;;;39.27;16.35;101539.38;5090949;28;20496;-74
2022/08/12 13:32:58;;;;;;;3.50;2.20;;;;;;;39.22;16.05;101530.97;5091493;28;20032;-74
2022/08/12 13:35:32;;;;;;;3.80;1.92;;;;;;;39.21;16.02;101546.16;5090895;28;20482;-75
2022/08/12 13:38:20;;;;;;;5.00;1.80;;;;;;;39.24;16.61;101542.78;5090029;28;20036;-73
2022/08/12 13:41:00;;;;;;;5.28;2.13;;;;;;;39.24;15.94;101534.34;5091156;28;20051;-76
2022/08/12 13:43:32;;;;;;;4.75;2.00;;;;;;;39.21;15.85;101535.75;5089873;28;20044;-73
2022/08/12 13:46:08;;;;;;;4.57;1.77;;;;;;;39.22;15.90;101531.81;5089984;28;20044;-75